createdAt,value
2018-02-01T00:06:46.649Z,4.58
2018-02-01T00:27:23.770Z,4.54
2018-02-01T00:47:55.964Z,4.55
2018-02-01T01:08:31.235Z,4.40
2018-02-01T01:29:06.506Z,4.16
2018-02-01T01:49:41.778Z,3.88
2018-02-01T02:28:15.943Z,3.58
2018-02-01T02:48:53.125Z,3.73
2018-02-01T03:09:27.111Z,3.98
2018-02-01T03:30:02.386Z,3.65
2018-02-01T03:50:38.578Z,3.36
2018-02-01T04:11:12.028Z,3.12
2018-02-01T04:31:46.050Z,3.49
2018-02-01T04:52:22.244Z,3.19
2018-02-01T05:12:57.515Z,3.30
2018-02-01T05:33:32.948Z,2.99
2018-02-01T05:54:06.828Z,2.79
2018-02-01T06:14:41.179Z,2.19
2018-02-01T06:35:18.294Z,1.82
2018-02-01T06:55:52.644Z,1.71
2018-02-01T07:16:30.070Z,1.80
2018-02-01T07:37:05.973Z,1.92
2018-02-01T07:57:41.225Z,2.07
2018-02-01T08:18:18.645Z,2.47
2018-02-01T08:38:53.918Z,2.57
2018-02-01T08:59:28.277Z,3.16
2018-02-01T09:20:02.308Z,3.35
2018-02-01T09:40:37.276Z,3.66
2018-02-01T10:01:11.946Z,3.92
2018-02-01T10:21:46.895Z,4.02
2018-02-01T10:42:20.937Z,4.28
2018-02-01T11:02:55.288Z,4.24
2018-02-01T11:23:30.557Z,4.37
2018-02-01T11:44:05.089Z,4.68
2018-02-01T12:04:39.260Z,4.58
2018-02-01T12:25:10.234Z,4.81
2018-02-01T12:45:50.108Z,4.92
2018-02-01T13:06:22.978Z,4.77
2018-02-01T13:26:58.806Z,4.47
2018-02-01T13:47:36.476Z,4.81
2018-02-01T14:08:18.775Z,5.05
2018-02-01T14:46:56.426Z,5.22
2018-02-01T15:07:34.466Z,5.24
2018-02-01T15:28:12.238Z,5.29
2018-02-01T15:48:45.641Z,5.04
2018-02-01T16:09:20.281Z,4.80
2018-02-01T16:29:54.629Z,4.57
2018-02-01T16:50:31.748Z,4.40
2018-02-01T17:11:06.095Z,3.98
2018-02-01T17:31:40.137Z,3.54
2018-02-01T17:52:12.649Z,3.49
2018-02-01T18:12:47.030Z,2.95
2018-02-01T18:33:21.968Z,2.49
2018-02-01T18:53:54.161Z,2.36
2018-02-01T19:14:30.357Z,2.10
2018-02-01T19:35:06.554Z,1.77
2018-02-01T19:55:43.190Z,1.93
2018-02-01T20:16:18.072Z,1.67
2018-02-01T20:36:55.437Z,1.78
2018-02-01T20:57:34.704Z,1.80
2018-02-01T21:18:08.137Z,1.66
2018-02-01T21:38:46.168Z,1.58
2018-02-01T21:59:20.522Z,1.38
2018-02-01T22:19:55.809Z,1.39
2018-02-01T22:40:30.763Z,1.26
2018-02-01T23:01:06.951Z,1.20
2018-02-01T23:21:43.586Z,1.03
2018-02-01T23:42:18.416Z,0.92
